Time;durP1;ratioP1;P1;durP2;ratioP2;P2;SDS_P1;SDS_P2;PMS_P1;PMS_P2;Temp;Humidity;BMP_temperature;BMP_pressure;BME280_temperature;BME280_humidity;BME280_pressure;Samples;Min_cycle;Max_cycle;Signal;HPM_P1;HPM_P2
2021/05/13 00:01:09;;;;;;;12.43;7.45;;;;;;;31.75;24.22;93662.63;5015849;28;20049;-53
2021/05/13 00:03:36;;;;;;;7.43;6.63;;;;;;;32.33;23.54;93661.38;5015788;28;20057;-51
2021/05/13 00:06:04;;;;;;;8.48;7.10;;;;;;;31.68;24.42;93659.34;5015586;28;20381;-58
2021/05/13 00:08:31;;;;;;;8.05;7.18;;;;;;;32.04;23.80;93664.34;5021783;28;20068;-61
2021/05/13 00:11:04;;;;;;;9.52;8.18;;;;;;;31.46;24.64;93659.31;5035323;28;20053;-67
2021/05/13 00:13:33;;;;;;;10.95;8.90;;;;;;;31.84;23.91;93659.97;5035349;28;20049;-64
2021/05/13 00:16:01;;;;;;;10.20;8.95;;;;;;;31.60;24.57;93659.59;5035283;28;20060;-67
2021/05/13 00:18:28;;;;;;;12.95;9.15;;;;;;;31.62;24.08;93648.38;5035239;28;20375;-66
2021/05/13 00:20:57;;;;;;;10.43;9.38;;;;;;;31.21;24.57;93650.09;5035208;28;20053;-55
2021/05/13 00:23:25;;;;;;;11.57;9.15;;;;;;;31.26;24.63;93656.91;5020305;28;20060;-65
2021/05/13 00:25:52;;;;;;;10.48;9.38;;;;;;;31.68;23.97;93662.06;5015431;28;20080;-57
2021/05/13 00:28:21;;;;;;;11.90;9.82;;;;;;;30.89;25.18;93651.06;5014342;28;20444;-63
2021/05/13 00:30:49;;;;;;;10.32;9.23;;;;;;;31.64;24.21;93654.06;5014362;28;20050;-55
2021/05/13 00:33:17;;;;;;;14.15;10.10;;;;;;;31.74;24.33;93652.97;5015425;28;20463;-56
2021/05/13 00:35:44;;;;;;;12.77;10.57;;;;;;;31.59;23.85;93652.69;5015276;28;20061;-67
2021/05/13 00:38:11;;;;;;;11.40;9.98;;;;;;;31.57;24.15;93654.31;5018129;28;20052;-65
2021/05/13 00:40:38;;;;;;;11.80;10.30;;;;;;;31.42;24.57;93654.03;5034679;28;20476;-63
2021/05/13 00:43:05;;;;;;;12.55;10.68;;;;;;;31.19;24.75;93660.56;5035065;28;20045;-67
2021/05/13 00:45:32;;;;;;;11.90;10.52;;;;;;;31.73;24.05;93656.88;5034998;28;20050;-62
2021/05/13 00:48:05;;;;;;;12.05;10.35;;;;;;;31.22;24.79;93662.38;5034870;28;20041;-66
2021/05/13 00:50:33;;;;;;;12.43;10.10;;;;;;;31.54;24.45;93666.00;5034798;28;20045;-65
2021/05/13 00:53:11;;;;;;;13.48;10.27;;;;;;;31.98;23.81;93666.06;5034838;28;20053;-53
2021/05/13 00:55:38;;;;;;;12.13;10.45;;;;;;;32.14;23.45;93657.78;5034476;28;20053;-63
2021/05/13 00:58:07;;;;;;;15.48;11.13;;;;;;;31.84;23.56;93673.50;5038800;28;20041;-67
2021/05/13 01:03:05;;;;;;;11.77;10.48;;;;;;;31.32;24.68;93657.09;5038777;28;20076;-52
2021/05/13 01:05:34;;;;;;;15.65;10.57;;;;;;;31.29;24.68;93651.38;5038550;28;20333;-64
2021/05/13 01:08:02;;;;;;;11.90;10.32;;;;;;;32.10;23.68;93655.22;5038426;28;20053;-52
2021/05/13 01:10:30;;;;;;;12.65;10.88;;;;;;;32.42;23.20;93651.34;5038259;28;20053;-64
2021/05/13 01:13:01;;;;;;;13.73;11.57;;;;;;;30.84;25.07;93646.22;5038548;28;20364;-67
2021/05/13 01:15:35;;;;;;;12.38;11.07;;;;;;;31.96;23.89;93658.41;5038431;28;20056;-54
2021/05/13 01:18:06;;;;;;;13.88;11.65;;;;;;;31.95;23.90;93656.91;5038446;28;20049;-62
2021/05/13 01:20:34;;;;;;;13.98;10.20;;;;;;;31.34;24.28;93654.72;5037052;28;20049;-60
2021/05/13 01:23:02;;;;;;;11.23;9.43;;;;;;;31.58;24.12;93661.25;5054057;28;20056;-50
2021/05/13 01:25:30;;;;;;;12.02;9.93;;;;;;;32.12;23.23;93663.63;5038284;28;20053;-53
2021/05/13 01:28:01;;;;;;;11.48;9.63;;;;;;;31.12;24.34;93663.47;5038276;28;20543;-60
2021/05/13 01:30:29;;;;;;;11.45;10.23;;;;;;;31.53;24.01;93659.84;5037833;28;20056;-51
2021/05/13 01:33:00;;;;;;;11.20;9.85;;;;;;;31.57;24.03;93651.63;5038360;28;20049;-65
2021/05/13 01:35:28;;;;;;;12.02;10.45;;;;;;;31.67;23.85;93649.75;5038220;28;20057;-56
2021/05/13 01:38:10;;;;;;;12.80;11.40;;;;;;;32.11;23.32;93642.44;5037897;28;20489;-57
2021/05/13 01:40:37;;;;;;;12.52;11.18;;;;;;;31.75;23.69;93648.31;5037764;28;20061;-57
2021/05/13 01:43:05;;;;;;;13.45;11.10;;;;;;;31.97;23.26;93645.63;5038067;28;20045;-60
2021/05/13 01:45:33;;;;;;;13.82;11.15;;;;;;;31.96;23.45;93641.44;5037806;28;20057;-64
2021/05/13 01:48:04;;;;;;;14.50;11.63;;;;;;;31.85;23.45;93637.16;5037953;28;20464;-67
2021/05/13 01:50:38;;;;;;;14.23;11.57;;;;;;;31.71;23.86;93636.88;5037629;28;20072;-60
2021/05/13 01:53:06;;;;;;;14.68;12.40;;;;;;;31.25;24.18;93636.50;5037653;28;20068;-67
2021/05/13 01:55:35;;;;;;;14.68;11.88;;;;;;;31.49;24.04;93637.63;5038260;28;20045;-67
2021/05/13 01:58:03;;;;;;;13.70;11.55;;;;;;;31.78;23.68;93632.03;5037759;28;20049;-66
2021/05/13 02:00:31;;;;;;;17.20;11.90;;;;;;;31.50;24.01;93630.25;5037504;28;20400;-66
2021/05/13 02:02:59;;;;;;;16.10;12.38;;;;;;;31.72;23.80;93639.16;5037581;28;20445;-54
2021/05/13 02:05:26;;;;;;;15.65;12.18;;;;;;;31.31;23.96;93642.09;5037358;28;20343;-62
2021/05/13 02:07:53;;;;;;;13.38;10.63;;;;;;;31.40;23.95;93642.16;5036586;28;20049;-67
2021/05/13 02:10:21;;;;;;;14.05;10.88;;;;;;;31.94;22.92;93636.47;5037102;28;20056;-54
2021/05/13 02:12:48;;;;;;;13.57;10.82;;;;;;;31.37;23.93;93634.94;5037490;28;20329;-53
2021/05/13 02:15:18;;;;;;;13.68;10.82;;;;;;;32.06;23.15;93635.66;5037370;28;20049;-53
2021/05/13 02:17:45;;;;;;;14.13;10.98;;;;;;;31.74;23.27;93631.38;5023932;28;20045;-67
2021/05/13 02:20:19;;;;;;;13.75;10.90;;;;;;;32.02;22.91;93635.03;5017385;28;20481;-66
2021/05/13 02:22:46;;;;;;;14.02;10.80;;;;;;;31.77;23.00;93635.91;5017181;28;20061;-67
2021/05/13 02:25:14;;;;;;;12.10;9.68;;;;;;;31.89;22.88;93637.03;5017316;28;20057;-66
2021/05/13 02:27:42;;;;;;;15.95;8.95;;;;;;;32.11;22.44;93639.75;5017372;28;20045;-63
2021/05/13 02:30:11;;;;;;;12.50;8.35;;;;;;;31.45;23.46;93636.97;5017198;28;20061;-68
2021/05/13 02:32:38;;;;;;;13.15;9.55;;;;;;;31.98;22.50;93642.50;5017128;28;20071;-65
2021/05/13 02:35:07;;;;;;;13.65;9.18;;;;;;;31.60;23.24;93638.00;5017068;28;20475;-66
2021/05/13 02:37:35;;;;;;;12.02;9.65;;;;;;;32.00;22.56;93631.25;5017103;28;20065;-67
2021/05/13 02:40:04;;;;;;;15.13;10.15;;;;;;;31.80;23.00;93634.28;5035357;28;20056;-64
2021/05/13 02:42:31;;;;;;;14.90;11.13;;;;;;;32.00;22.48;93633.94;5036824;28;20379;-55
2021/05/13 02:44:58;;;;;;;15.63;10.88;;;;;;;32.27;22.14;93641.50;5022411;28;20049;-54
2021/05/13 02:47:26;;;;;;;16.25;12.20;;;;;;;31.60;23.24;93637.25;5016983;28;20054;-67
2021/05/13 02:49:53;;;;;;;17.92;11.70;;;;;;;31.80;23.06;93634.28;5016751;28;20042;-56
2021/05/13 02:52:20;;;;;;;16.60;12.45;;;;;;;31.79;23.22;93633.53;5016846;28;20054;-62
2021/05/13 02:54:48;;;;;;;17.80;12.10;;;;;;;31.30;23.89;93630.53;5016965;28;20045;-53
2021/05/13 02:57:15;;;;;;;18.23;12.18;;;;;;;31.41;23.42;93635.56;5016812;28;20041;-68
2021/05/13 02:59:46;;;;;;;16.30;11.65;;;;;;;31.75;23.29;93635.59;5016645;28;20050;-60
2021/05/13 03:02:14;;;;;;;15.63;11.57;;;;;;;32.09;22.72;93639.44;5016488;28;20042;-55
2021/05/13 03:04:43;;;;;;;19.27;12.48;;;;;;;31.76;22.84;93636.34;5016490;28;20065;-52
2021/05/13 03:07:10;;;;;;;15.48;12.43;;;;;;;31.52;23.38;93634.03;5016578;28;20053;-60
2021/05/13 03:09:41;;;;;;;17.85;12.05;;;;;;;31.51;23.37;93629.06;5031635;28;20060;-57
2021/05/13 03:12:09;;;;;;;16.83;11.93;;;;;;;31.20;23.92;93637.78;5036383;28;20052;-59
2021/05/13 03:14:37;;;;;;;14.10;10.70;;;;;;;32.24;22.84;93645.06;5036179;28;20311;-66
2021/05/13 03:17:04;;;;;;;16.13;11.65;;;;;;;31.82;23.37;93653.50;5036293;28;20046;-61
2021/05/13 03:19:39;;;;;;;16.05;10.48;;;;;;;31.67;23.17;93652.44;5035129;28;20057;-57
2021/05/13 03:22:11;;;;;;;13.35;10.50;;;;;;;31.02;24.00;93642.97;5036101;28;20052;-53
2021/05/13 03:24:53;;;;;;;13.52;9.88;;;;;;;31.41;23.53;93643.66;5035983;28;20049;-65
2021/05/13 03:29:54;;;;;;;15.95;11.30;;;;;;;31.93;22.43;93621.44;5035901;28;19913;-61
2021/05/13 03:32:22;;;;;;;15.32;10.85;;;;;;;30.64;24.16;93630.25;5035843;28;20057;-52
2021/05/13 03:34:49;;;;;;;13.25;10.90;;;;;;;31.59;23.11;93635.72;5035861;28;20045;-67
2021/05/13 03:37:16;;;;;;;13.65;11.85;;;;;;;32.08;22.65;93640.63;5035868;28;20045;-53
2021/05/13 03:39:43;;;;;;;14.95;10.82;;;;;;;31.28;23.33;93641.78;5035424;28;20057;-63
2021/05/13 03:42:10;;;;;;;14.38;10.13;;;;;;;31.69;22.69;93633.84;5035798;28;20045;-54
2021/05/13 03:44:37;;;;;;;12.75;10.32;;;;;;;31.15;23.31;93640.25;5035500;28;20065;-65
2021/05/13 03:47:04;;;;;;;14.48;10.60;;;;;;;32.30;22.12;93646.81;5035567;28;20045;-53
2021/05/13 03:49:31;;;;;;;11.93;9.65;;;;;;;30.80;23.80;93650.22;5035396;28;20061;-57
2021/05/13 03:51:58;;;;;;;11.48;8.75;;;;;;;31.17;23.20;93638.66;5035321;28;20444;-52
2021/05/13 03:54:26;;;;;;;14.63;9.98;;;;;;;31.74;22.54;93636.78;5035617;28;20049;-55
2021/05/13 03:56:53;;;;;;;12.05;8.60;;;;;;;31.73;22.52;93640.66;5035676;28;20068;-63
2021/05/13 03:59:40;;;;;;;14.30;9.40;;;;;;;31.32;22.79;93646.28;5035335;28;20049;-67
2021/05/13 04:04:49;;;;;;;10.77;9.15;;;;;;;31.92;22.11;93648.91;5030033;28;20061;-56
2021/05/13 04:07:16;;;;;;;11.65;9.35;;;;;;;32.24;21.81;93643.13;5033755;28;20476;-56
2021/05/13 04:09:44;;;;;;;13.77;9.63;;;;;;;31.97;22.41;93632.88;5034410;28;20045;-54
2021/05/13 04:12:11;;;;;;;13.30;8.75;;;;;;;31.71;22.60;93632.25;5017491;28;20057;-55
2021/05/13 04:14:38;;;;;;;9.07;8.10;;;;;;;31.67;22.82;93645.09;5035241;28;20056;-60
2021/05/13 04:17:07;;;;;;;12.23;9.10;;;;;;;31.88;22.21;93641.69;5035269;28;20056;-52
2021/05/13 04:19:35;;;;;;;11.32;9.20;;;;;;;31.62;22.51;93637.56;5035043;28;20380;-55
2021/05/13 04:22:03;;;;;;;11.68;8.68;;;;;;;32.17;22.25;93629.84;5035551;28;20053;-53
2021/05/13 04:24:30;;;;;;;9.68;8.63;;;;;;;31.55;23.17;93637.81;5035372;28;20041;-53
2021/05/13 04:26:57;;;;;;;10.00;9.00;;;;;;;32.32;22.27;93636.28;5035233;28;20057;-52
2021/05/13 04:29:25;;;;;;;11.73;8.80;;;;;;;31.71;22.99;93640.34;5035223;28;20549;-54
2021/05/13 04:31:52;;;;;;;11.63;8.55;;;;;;;31.59;23.03;93636.50;5038076;28;20053;-55
2021/05/13 04:34:20;;;;;;;12.32;10.48;;;;;;;33.68;21.23;93642.59;5037518;28;20046;-59
2021/05/13 04:36:47;;;;;;;16.63;10.93;;;;;;;34.85;19.81;93637.44;5019729;28;20050;-60
2021/05/13 04:39:14;;;;;;;12.40;10.85;;;;;;;35.29;19.41;93636.16;5029287;28;20041;-54
2021/05/13 04:41:41;;;;;;;10.30;9.25;;;;;;;33.89;20.81;93640.97;5043687;28;20041;-51
2021/05/13 04:44:09;;;;;;;10.50;8.90;;;;;;;32.66;21.61;93640.06;5039556;28;20050;-52
2021/05/13 04:46:37;;;;;;;9.88;8.80;;;;;;;32.90;21.65;93637.63;5019002;28;20046;-50
2021/05/13 04:51:35;;;;;;;9.38;8.23;;;;;;;32.33;22.01;93629.69;5033835;28;20049;-55
2021/05/13 04:54:03;;;;;;;10.60;8.32;;;;;;;32.47;22.11;93637.25;5038952;28;20057;-51
2021/05/13 04:56:31;;;;;;;9.25;7.65;;;;;;;32.03;22.87;93633.09;5038825;28;20542;-53
2021/05/13 04:58:59;;;;;;;11.02;8.23;;;;;;;32.63;21.72;93632.81;5005290;28;20057;-53
2021/05/13 05:01:26;;;;;;;13.77;9.32;;;;;;;32.43;21.97;93631.22;5038401;28;20045;-54
2021/05/13 05:03:53;;;;;;;10.93;9.40;;;;;;;32.90;21.78;93637.63;5038603;28;20091;-55
2021/05/13 05:06:21;;;;;;;10.77;9.13;;;;;;;33.28;21.56;93627.16;5038582;28;20384;-55
2021/05/13 05:08:48;;;;;;;9.65;8.23;;;;;;;32.92;21.57;93635.97;5038435;28;20061;-56
2021/05/13 05:11:17;;;;;;;11.00;8.75;;;;;;;32.82;21.76;93629.03;5038266;28;20045;-54
2021/05/13 05:13:44;;;;;;;9.52;7.93;;;;;;;32.97;21.54;93635.38;5038603;28;20440;-57
2021/05/13 05:16:11;;;;;;;9.15;8.20;;;;;;;32.45;22.79;93631.53;5038609;28;20056;-54
2021/05/13 05:18:38;;;;;;;8.82;7.93;;;;;;;33.02;21.89;93642.91;5038354;28;20045;-54
2021/05/13 05:21:05;;;;;;;10.80;8.75;;;;;;;33.18;21.38;93641.91;5037977;28;20501;-57
2021/05/13 05:23:32;;;;;;;9.55;8.30;;;;;;;33.40;21.49;93639.09;5038423;28;20050;-54
2021/05/13 05:26:00;;;;;;;11.05;8.48;;;;;;;32.96;22.02;93644.69;5038286;28;20060;-55
2021/05/13 05:28:28;;;;;;;10.45;9.05;;;;;;;33.59;20.92;93646.06;5026721;28;20049;-52
2021/05/13 05:30:55;;;;;;;11.75;8.82;;;;;;;33.14;21.66;93644.00;5034408;28;20041;-55
2021/05/13 05:33:22;;;;;;;10.50;8.25;;;;;;;33.23;21.70;93621.59;5038081;28;20483;-54
2021/05/13 05:35:50;;;;;;;9.48;8.10;;;;;;;33.92;21.63;93646.22;5038264;28;20470;-68
2021/05/13 05:38:17;;;;;;;9.70;8.02;;;;;;;33.22;22.00;93641.75;5037921;28;20054;-60
2021/05/13 05:40:45;;;;;;;9.38;8.20;;;;;;;33.20;22.14;93636.78;5049355;28;20680;-56
2021/05/13 05:43:12;;;;;;;9.77;8.15;;;;;;;33.59;20.99;93635.22;5017201;28;20060;-53
2021/05/13 05:45:39;;;;;;;9.40;7.93;;;;;;;34.12;20.91;93637.63;5018165;28;20058;-54
2021/05/13 05:48:07;;;;;;;10.45;8.32;;;;;;;33.38;21.79;93652.34;5018162;28;20360;-53
2021/05/13 05:50:37;;;;;;;11.93;8.65;;;;;;;33.91;20.95;93643.97;5019714;28;20058;-50
2021/05/13 05:53:05;;;;;;;9.68;7.80;;;;;;;34.62;19.92;93657.13;5037503;28;20057;-50
2021/05/13 05:55:33;;;;;;;12.40;9.73;;;;;;;34.28;21.14;93656.25;5038055;28;20049;-52
2021/05/13 05:58:01;;;;;;;14.15;11.43;;;;;;;34.10;21.93;93650.88;5037778;28;20052;-50
2021/05/13 06:00:28;;;;;;;18.15;12.30;;;;;;;34.25;21.45;93643.59;5037061;28;20064;-56
2021/05/13 06:02:56;;;;;;;20.00;13.13;;;;;;;33.99;22.34;93651.31;5036676;28;20041;-54
2021/05/13 06:05:24;;;;;;;17.80;12.20;;;;;;;33.97;22.40;93642.16;5037427;28;20051;-52
2021/05/13 06:07:51;;;;;;;15.60;12.52;;;;;;;34.29;21.58;93641.47;5037271;28;20341;-51
2021/05/13 06:10:19;;;;;;;16.27;12.38;;;;;;;34.21;21.77;93653.88;5037246;28;20056;-54
2021/05/13 06:12:47;;;;;;;15.27;12.93;;;;;;;34.14;22.18;93640.63;5037101;28;20048;-53
2021/05/13 06:15:17;;;;;;;15.95;11.88;;;;;;;33.87;22.12;93637.94;5037362;28;20349;-52
2021/05/13 06:17:44;;;;;;;15.13;12.88;;;;;;;33.49;22.26;93641.81;5037341;28;20056;-52
2021/05/13 06:20:28;;;;;;;16.10;13.60;;;;;;;33.59;22.36;93635.22;5037224;28;20053;-54
2021/05/13 06:22:56;;;;;;;16.75;13.38;;;;;;;33.21;22.86;93643.69;5037221;28;20056;-51
2021/05/13 06:25:24;;;;;;;21.73;16.23;;;;;;;33.93;22.53;93636.88;5037242;28;20061;-54
2021/05/13 06:27:52;;;;;;;18.92;15.35;;;;;;;33.90;22.02;93642.47;5037151;28;20046;-55
2021/05/13 06:30:20;;;;;;;26.70;20.95;;;;;;;34.32;22.02;93635.16;5036928;28;20049;-52
2021/05/13 06:32:48;;;;;;;22.38;18.88;;;;;;;33.68;22.24;93632.50;5036685;28;20037;-52
2021/05/13 06:35:18;;;;;;;23.70;20.73;;;;;;;34.74;21.06;93623.59;5036979;28;20080;-52
2021/05/13 06:37:46;;;;;;;25.77;19.63;;;;;;;34.41;21.71;93626.28;5036705;28;20052;-53
2021/05/13 06:40:18;;;;;;;28.05;23.00;;;;;;;33.98;22.29;93638.22;5036974;28;20053;-54
2021/05/13 06:42:46;;;;;;;21.17;18.10;;;;;;;34.27;22.18;93635.00;5020442;28;20046;-53
2021/05/13 06:45:14;;;;;;;24.83;20.80;;;;;;;34.00;22.58;93641.25;5016964;28;20069;-53
2021/05/13 06:47:43;;;;;;;23.33;17.52;;;;;;;34.34;21.62;93640.13;5017037;28;20053;-53
2021/05/13 06:50:11;;;;;;;20.02;16.83;;;;;;;34.70;21.90;93644.72;5017100;28;20046;-52
2021/05/13 06:52:39;;;;;;;17.58;15.25;;;;;;;34.88;21.46;93650.13;5033808;28;20060;-51
2021/05/13 06:55:07;;;;;;;22.40;15.77;;;;;;;34.55;22.25;93635.72;5026370;28;20052;-51
2021/05/13 06:57:34;;;;;;;19.88;15.48;;;;;;;35.04;21.82;93640.81;5016824;28;20046;-54
2021/05/13 07:00:02;;;;;;;18.70;14.95;;;;;;;34.77;21.93;93635.50;5016596;28;20457;-53
2021/05/13 07:02:32;;;;;;;20.02;15.48;;;;;;;35.18;21.28;93642.88;5024202;28;20101;-52
2021/05/13 07:04:59;;;;;;;18.80;15.52;;;;;;;35.92;20.32;93631.53;4999390;28;20058;-56
2021/05/13 07:07:27;;;;;;;18.08;14.68;;;;;;;35.73;19.81;93637.06;5016523;28;20049;-53
2021/05/13 07:09:54;;;;;;;29.85;26.17;;;;;;;36.19;19.18;93633.25;5033866;28;20080;-53
2021/05/13 07:12:21;;;;;;;24.10;20.73;;;;;;;36.49;19.82;93629.31;5032899;28;20060;-55
2021/05/13 07:14:48;;;;;;;24.17;20.27;;;;;;;36.25;19.68;93631.34;5036115;28;20471;-52
2021/05/13 07:17:15;;;;;;;23.08;20.25;;;;;;;35.90;20.07;93623.81;5036181;28;20045;-52
2021/05/13 07:19:42;;;;;;;19.17;17.15;;;;;;;36.00;20.24;93622.53;5036081;28;20053;-52
2021/05/13 07:22:10;;;;;;;20.50;17.15;;;;;;;35.75;20.11;93631.19;5035723;28;20042;-54
2021/05/13 07:24:37;;;;;;;20.92;17.15;;;;;;;36.47;19.30;93625.56;5035942;28;20444;-53
2021/05/13 07:27:09;;;;;;;18.35;14.63;;;;;;;36.73;18.64;93615.56;5035909;28;20049;-52
2021/05/13 07:29:37;;;;;;;16.35;14.05;;;;;;;36.05;19.66;93624.59;5035725;28;20049;-57
2021/05/13 07:32:05;;;;;;;16.17;14.02;;;;;;;36.21;19.16;93611.75;5035591;28;20068;-53
2021/05/13 07:34:32;;;;;;;16.88;14.55;;;;;;;36.59;19.17;93617.09;5024645;28;20045;-53
2021/05/13 07:36:59;;;;;;;15.10;13.65;;;;;;;36.35;19.31;93613.75;5016080;28;20061;-56
2021/05/13 07:39:26;;;;;;;14.85;13.38;;;;;;;36.23;19.52;93612.78;5029520;28;20045;-54
2021/05/13 07:41:54;;;;;;;18.27;14.70;;;;;;;36.53;19.72;93615.50;5027668;28;20060;-52
2021/05/13 07:44:21;;;;;;;16.90;13.43;;;;;;;36.57;19.16;93614.09;5016009;28;20048;-56
2021/05/13 07:46:49;;;;;;;15.10;13.50;;;;;;;36.80;19.01;93614.47;5015871;28;20050;-53
2021/05/13 07:49:17;;;;;;;14.27;12.75;;;;;;;36.86;18.72;93612.56;5015706;28;20053;-54
2021/05/13 07:51:44;;;;;;;16.38;12.70;;;;;;;37.05;18.68;93611.09;5022482;28;20346;-56
2021/05/13 07:54:11;;;;;;;15.18;12.88;;;;;;;37.35;18.37;93609.78;5020756;28;20058;-55
2021/05/13 07:56:39;;;;;;;18.05;15.43;;;;;;;37.28;18.34;93599.31;5016001;28;20365;-53
2021/05/13 07:59:06;;;;;;;25.50;22.45;;;;;;;37.35;19.50;93600.88;5015593;28;20480;-59
2021/05/13 08:01:33;;;;;;;15.23;13.55;;;;;;;37.81;18.68;93600.94;5021541;28;20399;-53
2021/05/13 08:04:00;;;;;;;21.40;18.30;;;;;;;38.08;17.84;93601.69;5035297;28;20061;-57
2021/05/13 08:06:28;;;;;;;18.52;15.77;;;;;;;38.45;17.56;93607.97;5034621;28;20056;-56
2021/05/13 08:08:55;;;;;;;15.93;13.77;;;;;;;37.87;17.44;93598.25;5033350;28;20064;-52
2021/05/13 08:11:22;;;;;;;14.57;13.00;;;;;;;37.91;17.84;93594.06;5035029;28;20041;-60
2021/05/13 08:13:49;;;;;;;18.45;13.93;;;;;;;37.96;17.76;93596.09;5023541;28;20049;-57
2021/05/13 08:16:16;;;;;;;15.18;13.45;;;;;;;37.97;17.76;93592.16;5015869;28;20042;-55
2021/05/13 08:18:43;;;;;;;17.75;12.05;;;;;;;38.06;16.94;93587.78;5014748;28;20057;-55
2021/05/13 08:21:11;;;;;;;12.85;11.45;;;;;;;37.92;17.38;93587.38;5017495;28;20045;-58
2021/05/13 08:23:38;;;;;;;13.85;12.45;;;;;;;38.20;17.51;93581.47;5035184;28;20456;-52
2021/05/13 08:26:05;;;;;;;13.90;11.35;;;;;;;37.31;17.88;93582.00;5017735;28;20053;-56
2021/05/13 08:28:34;;;;;;;12.45;11.10;;;;;;;36.78;17.76;93582.25;5026254;28;20053;-54
2021/05/13 08:31:01;;;;;;;11.32;10.20;;;;;;;37.26;18.21;93573.75;5015645;28;20053;-54
2021/05/13 08:33:28;;;;;;;14.13;10.52;;;;;;;37.61;18.20;93566.22;5035066;28;20506;-54
2021/05/13 08:35:55;;;;;;;11.52;10.32;;;;;;;37.93;17.65;93569.78;5022706;28;20061;-54
2021/05/13 08:38:22;;;;;;;11.75;10.18;;;;;;;38.01;17.64;93563.94;5020149;28;20057;-53
2021/05/13 08:40:49;;;;;;;11.30;8.73;;;;;;;37.79;16.50;93562.47;5034826;28;20042;-52
2021/05/13 08:43:27;;;;;;;9.80;8.68;;;;;;;38.03;15.86;93569.66;5034823;28;20041;-53
2021/05/13 08:45:57;;;;;;;11.73;9.35;;;;;;;38.10;17.00;93569.97;5033529;28;20285;-56
2021/05/13 08:48:30;;;;;;;13.95;10.60;;;;;;;37.99;16.68;93566.38;5015237;28;20046;-52
2021/05/13 08:50:59;;;;;;;13.45;8.80;;;;;;;38.49;17.13;93559.38;5015017;28;20046;-54
2021/05/13 08:53:29;;;;;;;9.90;8.07;;;;;;;39.13;16.37;93563.53;5033688;28;20080;-55
2021/05/13 08:55:57;;;;;;;12.02;7.68;;;;;;;38.93;16.20;93552.72;5034939;28;20468;-57
2021/05/13 08:58:24;;;;;;;9.10;7.10;;;;;;;39.05;15.70;93565.22;5034797;28;20057;-52
2021/05/13 09:00:55;;;;;;;7.95;6.40;;;;;;;38.40;15.76;93559.56;5034792;28;20061;-54
2021/05/13 09:03:36;;;;;;;9.18;7.55;;;;;;;38.52;16.24;93555.69;5030105;28;20053;-54
2021/05/13 09:06:05;;;;;;;9.87;7.83;;;;;;;38.12;16.12;93569.47;5015077;28;20064;-53
2021/05/13 09:08:32;;;;;;;9.30;8.30;;;;;;;38.25;16.12;93567.13;5021087;28;20448;-53
2021/05/13 09:11:10;;;;;;;9.98;8.23;;;;;;;37.93;16.93;93564.34;5034612;28;20456;-53
2021/05/13 09:13:37;;;;;;;11.02;7.07;;;;;;;38.21;17.18;93550.22;5014189;28;20411;-55
2021/05/13 09:16:24;;;;;;;11.95;7.55;;;;;;;38.33;17.24;93532.72;5020659;28;20065;-53
2021/05/13 09:18:51;;;;;;;8.85;7.47;;;;;;;38.41;16.62;93536.47;5038429;28;20048;-56
2021/05/13 09:21:20;;;;;;;8.13;6.65;;;;;;;38.46;16.78;93543.97;5023104;28;20049;-54
2021/05/13 09:23:47;;;;;;;8.25;6.13;;;;;;;37.44;16.88;93545.47;5038372;28;20041;-53
2021/05/13 09:26:17;;;;;;;18.08;12.30;;;;;;;38.58;16.30;93544.06;5021528;28;20050;-58
2021/05/13 09:28:47;;;;;;;8.85;7.20;;;;;;;39.01;15.27;93548.28;5001006;28;20056;-55
2021/05/13 09:31:51;;;;;;;11.20;8.88;;;;;;;38.39;15.75;93538.22;5018818;28;20058;-52
2021/05/13 09:34:18;;;;;;;8.18;5.50;;;;;;;38.57;16.40;93532.38;4955732;29;20051;-55
2021/05/13 09:36:46;;;;;;;8.85;5.32;;;;;;;37.79;16.07;93524.31;5003515;28;20065;-57
2021/05/13 09:39:26;;;;;;;7.28;5.00;;;;;;;38.93;15.84;93524.66;5029840;28;20041;-56
2021/05/13 09:42:04;;;;;;;6.60;5.03;;;;;;;39.14;15.87;93524.03;5023589;28;20056;-55
2021/05/13 09:44:41;;;;;;;8.32;4.43;;;;;;;38.70;14.53;93512.88;5037979;28;20048;-54
2021/05/13 09:47:25;;;;;;;8.05;4.55;;;;;;;39.12;15.35;93512.13;5037886;28;20045;-53
2021/05/13 09:50:02;;;;;;;6.47;4.45;;;;;;;39.20;14.90;93509.66;5034499;28;20053;-54
2021/05/13 09:52:40;;;;;;;6.03;3.85;;;;;;;38.29;15.18;93513.09;5027777;28;20045;-53
2021/05/13 09:55:13;;;;;;;6.13;3.58;;;;;;;38.81;14.21;93499.28;5038112;28;20056;-55
2021/05/13 09:57:41;;;;;;;7.18;3.20;;;;;;;38.79;14.61;93505.25;5037749;28;20471;-55
2021/05/13 10:00:09;;;;;;;5.57;3.30;;;;;;;39.48;14.30;93502.28;5037595;28;20049;-56
2021/05/13 10:02:36;;;;;;;4.75;3.40;;;;;;;39.09;15.10;93494.72;5037223;28;20045;-53
2021/05/13 10:05:05;;;;;;;5.60;2.10;;;;;;;39.31;12.43;93498.75;5020040;28;20045;-54
2021/05/13 10:07:32;;;;;;;3.88;1.75;;;;;;;39.72;10.63;93494.41;5019763;28;20053;-53
2021/05/13 10:09:59;;;;;;;2.85;1.10;;;;;;;40.06;9.60;93491.69;5034417;28;20045;-54
2021/05/13 10:12:27;;;;;;;3.80;1.20;;;;;;;39.72;11.34;93483.44;5026505;28;20396;-55
2021/05/13 10:14:55;;;;;;;2.13;1.40;;;;;;;39.13;11.97;93486.28;5037551;28;20045;-57
2021/05/13 10:17:22;;;;;;;5.47;1.83;;;;;;;39.04;12.21;93481.75;5037183;28;20053;-58
2021/05/13 10:19:53;;;;;;;4.50;1.60;;;;;;;40.14;12.05;93473.56;5037138;28;20460;-55
2021/05/13 10:22:20;;;;;;;3.88;1.88;;;;;;;39.27;11.80;93471.66;5005212;28;20053;-55
2021/05/13 10:24:51;;;;;;;2.58;1.45;;;;;;;39.83;10.64;93473.78;5017343;28;20057;-56
2021/05/13 10:27:20;;;;;;;4.90;3.33;;;;;;;39.35;10.81;93477.41;5017383;28;20072;-56
2021/05/13 10:29:58;;;;;;;3.65;1.95;;;;;;;39.65;10.46;93473.00;5015724;28;20054;-54
2021/05/13 10:32:31;;;;;;;5.45;2.60;;;;;;;39.74;10.60;93470.03;5025271;28;20384;-54
2021/05/13 10:34:59;;;;;;;9.45;3.80;;;;;;;39.47;9.35;93462.50;5019474;28;20045;-52
2021/05/13 10:37:37;;;;;;;4.32;3.30;;;;;;;39.03;10.58;93455.66;5003253;28;20041;-56
2021/05/13 10:43:18;;;;;;;2.15;1.60;;;;;;;39.68;10.17;93452.88;5036598;28;20041;-58
2021/05/13 10:45:46;;;;;;;3.65;1.33;;;;;;;39.09;11.06;93455.72;5007311;28;20052;-53
2021/05/13 10:48:38;;;;;;;3.45;1.33;;;;;;;39.94;9.58;93471.03;5030505;28;20076;-60
2021/05/13 10:51:10;;;;;;;3.47;1.10;;;;;;;39.66;9.55;93462.81;5016926;28;20492;-57
2021/05/13 10:53:45;;;;;;;3.33;1.63;;;;;;;39.80;9.61;93467.28;5034089;28;20062;-57
2021/05/13 10:56:19;;;;;;;2.08;1.13;;;;;;;40.65;8.29;93485.19;5031072;28;20054;-58
2021/05/13 10:59:08;;;;;;;2.10;1.20;;;;;;;39.59;8.62;93475.00;5016591;28;20068;-58
2021/05/13 11:01:52;;;;;;;2.60;1.13;;;;;;;39.70;8.75;93463.31;5017057;28;20045;-57
2021/05/13 11:04:23;;;;;;;2.20;1.02;;;;;;;39.76;9.23;93461.31;5036362;28;20057;-54
2021/05/13 11:06:55;;;;;;;2.88;1.20;;;;;;;39.02;8.76;93465.09;4999120;28;20054;-55
2021/05/13 11:09:55;;;;;;;2.10;1.00;;;;;;;39.99;8.46;93462.09;5029570;28;20052;-53
2021/05/13 11:12:39;;;;;;;3.67;1.42;;;;;;;39.93;8.83;93477.75;5033878;28;20049;-54
2021/05/13 11:15:23;;;;;;;8.30;6.35;;;;;;;38.69;10.97;93468.44;5016464;28;20053;-55
2021/05/13 11:17:52;;;;;;;7.47;4.57;;;;;;;38.76;11.05;93478.13;5016514;28;20046;-55
2021/05/13 11:20:29;;;;;;;4.07;1.75;;;;;;;39.17;9.26;93473.13;5016331;28;20061;-54
2021/05/13 11:23:04;;;;;;;4.43;1.60;;;;;;;38.52;9.54;93464.84;5027146;28;20356;-56
2021/05/13 11:25:55;;;;;;;3.58;2.13;;;;;;;38.88;9.66;93474.22;5017912;28;20053;-56
2021/05/13 11:28:41;;;;;;;2.72;1.73;;;;;;;38.73;9.42;93465.47;5016139;28;20049;-57
2021/05/13 11:31:08;;;;;;;4.35;2.30;;;;;;;38.55;9.47;93463.88;5016315;28;20058;-52
2021/05/13 12:19:13;;;;;;;3.85;1.90;;;;;;;38.35;10.09;93440.19;4978760;28;20475;-58
2021/05/13 12:21:41;;;;;;;2.88;1.73;;;;;;;37.75;10.52;93438.50;4998458;28;20050;-59
2021/05/13 12:24:09;;;;;;;11.80;10.07;;;;;;;37.83;10.25;93442.28;5033149;28;20045;-58
2021/05/13 12:26:39;;;;;;;7.03;3.47;;;;;;;38.09;10.22;93439.50;5034251;28;20395;-60
2021/05/13 12:29:13;;;;;;;4.80;2.70;;;;;;;37.84;10.26;93432.88;5034887;28;20056;-54
2021/05/13 12:31:46;;;;;;;4.05;1.85;;;;;;;37.69;10.51;93434.94;5035296;28;20068;-56
2021/05/13 12:34:42;;;;;;;2.92;2.08;;;;;;;38.92;10.03;93425.56;5034691;28;20048;-54